Time;durP1;ratioP1;P1;durP2;ratioP2;P2;SDS_P1;SDS_P2;PMS_P1;PMS_P2;Temp;Humidity;BMP_temperature;BMP_pressure;BME280_temperature;BME280_humidity;BME280_pressure;Samples;Min_cycle;Max_cycle;Signal;HPM_P1;HPM_P2
2022/03/21 19:12:55;;;;;;;37.47;22.27;;;;;;;12.95;41.55;102081.84;5134725;27;20371;-41
2022/03/21 19:15:28;;;;;;;38.53;20.48;;;;;;;12.69;41.66;102073.94;5133865;28;20039;-41
2022/03/21 19:18:16;;;;;;;41.25;20.20;;;;;;;12.72;41.73;102084.34;5133176;28;20031;-41
2022/03/21 19:20:42;;;;;;;35.85;18.77;;;;;;;12.69;41.63;102076.63;5117824;28;20063;-45
2022/03/21 19:26:30;;;;;;;37.42;19.88;;;;;;;12.44;41.76;102083.81;5131991;28;20118;-44
2022/03/21 19:28:56;;;;;;;36.55;20.50;;;;;;;12.35;41.78;102093.75;5131874;27;20107;-44
2022/03/21 19:31:22;;;;;;;37.10;21.48;;;;;;;12.36;41.59;102087.34;5131696;27;20077;-43
2022/03/21 19:33:51;;;;;;;36.05;20.58;;;;;;;12.30;41.12;102091.56;5132571;28;20034;-42
2022/03/21 19:36:23;;;;;;;42.70;20.60;;;;;;;12.13;41.29;102093.38;5132675;28;20058;-43
2022/03/21 19:38:57;;;;;;;38.30;20.40;;;;;;;11.89;41.60;102091.41;5133771;27;20098;-42
2022/03/21 19:41:32;;;;;;;38.83;20.27;;;;;;;11.79;40.97;102096.91;5131934;28;20031;-42
2022/03/21 19:44:02;;;;;;;32.47;19.48;;;;;;;11.79;41.48;102107.69;5133765;27;20042;-47
2022/03/21 19:46:38;;;;;;;36.03;20.20;;;;;;;11.54;41.81;102111.25;5132502;28;20112;-44
2022/03/21 19:49:05;;;;;;;41.03;21.30;;;;;;;11.60;41.71;102099.84;5131985;28;20038;-42
2022/03/21 19:51:32;;;;;;;34.22;20.08;;;;;;;11.57;41.14;102097.44;5131599;28;20043;-46
2022/03/21 19:53:58;;;;;;;38.55;20.45;;;;;;;11.51;41.03;102100.78;5111383;28;20115;-43
2022/03/21 19:56:25;;;;;;;36.47;19.52;;;;;;;11.38;41.40;102098.53;5112203;28;20425;-44
2022/03/21 19:58:52;;;;;;;35.50;19.60;;;;;;;11.29;41.35;102107.53;5112577;28;20032;-43
2022/03/21 20:08:03;;;;;;;38.72;18.58;;;;;;;11.10;41.10;102108.59;5030147;28;20549;-42
2022/03/21 20:10:30;;;;;;;25.58;17.65;;;;;;;11.03;41.10;102109.22;5013130;28;20021;-44
2022/03/21 20:12:57;;;;;;;30.05;18.02;;;;;;;11.01;41.30;102102.28;5005393;28;20052;-46
2022/03/21 20:15:26;;;;;;;28.67;17.33;;;;;;;10.98;40.71;102102.63;5000272;28;20034;-45
2022/03/21 20:18:00;;;;;;;31.60;18.25;;;;;;;10.85;40.72;102111.91;5016209;28;20098;-43
2022/03/21 20:20:27;;;;;;;30.33;17.45;;;;;;;10.96;40.69;102120.75;5000539;28;20473;-44
2022/03/21 20:22:54;;;;;;;28.80;16.75;;;;;;;11.10;40.73;102122.03;5000136;28;20034;-41
2022/03/21 20:25:30;;;;;;;29.33;18.00;;;;;;;10.84;40.54;102118.28;5000430;28;20095;-43
2022/03/21 20:28:01;;;;;;;29.17;18.52;;;;;;;10.79;40.76;102126.00;5000478;28;20115;-45
2022/03/21 20:30:28;;;;;;;29.17;16.88;;;;;;;10.80;41.05;102116.06;4998545;28;20064;-44
2022/03/21 20:32:55;;;;;;;32.70;17.63;;;;;;;10.75;41.04;102119.22;4998777;28;20438;-42
2022/03/21 20:35:25;;;;;;;32.88;18.63;;;;;;;10.45;40.71;102129.31;5057023;28;20093;-41
2022/03/21 20:37:55;;;;;;;35.03;18.85;;;;;;;10.39;40.91;102123.72;5093960;28;20024;-41
2022/03/21 20:40:27;;;;;;;32.72;18.83;;;;;;;10.32;41.33;102125.34;5094525;28;20118;-43
2022/03/21 20:42:55;;;;;;;32.45;19.05;;;;;;;10.30;41.62;102132.66;5077167;28;20037;-42
2022/03/21 20:45:26;;;;;;;29.60;17.88;;;;;;;10.30;41.50;102128.13;5078447;28;20040;-43
2022/03/21 20:47:57;;;;;;;28.05;18.38;;;;;;;10.40;41.10;102133.47;5077266;28;20103;-43
2022/03/21 20:50:24;;;;;;;30.83;19.10;;;;;;;10.33;41.34;102141.28;5093968;28;20032;-42
2022/03/21 20:52:53;;;;;;;34.15;18.42;;;;;;;10.24;41.52;102137.63;5077961;28;20033;-42
2022/03/21 20:55:24;;;;;;;34.95;19.52;;;;;;;10.28;41.72;102139.00;5094242;28;20021;-42
2022/03/21 20:57:51;;;;;;;32.53;18.73;;;;;;;10.24;41.74;102137.63;5078591;28;20032;-44
2022/03/21 21:00:22;;;;;;;32.38;19.48;;;;;;;10.13;41.95;102135.16;5078675;28;20032;-45
2022/03/21 21:02:53;;;;;;;33.85;19.38;;;;;;;10.17;42.05;102138.38;5093910;28;20032;-45
2022/03/21 21:05:19;;;;;;;35.47;19.90;;;;;;;10.08;41.95;102140.97;5077322;28;20031;-50
2022/03/21 21:07:56;;;;;;;30.83;19.65;;;;;;;10.06;42.44;102150.16;5076602;28;20028;-43
2022/03/21 21:13:20;;;;;;;31.48;19.63;;;;;;;9.97;42.75;102140.31;5040139;28;20122;-46
2022/03/21 21:15:52;;;;;;;31.55;19.70;;;;;;;9.95;42.25;102148.50;5037706;28;20033;-46
2022/03/21 21:18:23;;;;;;;30.27;18.08;;;;;;;9.99;42.59;102154.44;5037541;28;20025;-43
2022/03/21 21:20:51;;;;;;;32.42;18.63;;;;;;;9.94;42.72;102148.69;5052833;28;20028;-43
2022/03/21 21:23:19;;;;;;;30.15;18.40;;;;;;;9.96;42.68;102147.53;5052616;28;20060;-42
2022/03/21 21:25:46;;;;;;;34.45;18.25;;;;;;;9.95;42.90;102150.34;5036200;28;20025;-42
2022/03/21 21:28:12;;;;;;;34.65;19.33;;;;;;;9.78;43.06;102147.44;5036103;28;20424;-43
2022/03/21 21:30:39;;;;;;;31.42;19.02;;;;;;;9.81;43.04;102133.75;5036241;28;20069;-44
2022/03/21 21:33:05;;;;;;;29.42;18.13;;;;;;;9.80;43.14;102148.16;5036014;28;20424;-46
2022/03/21 21:35:33;;;;;;;37.63;20.10;;;;;;;9.77;43.64;102145.78;5035387;28;20036;-42
2022/03/21 21:38:00;;;;;;;35.45;20.33;;;;;;;9.59;43.46;102153.72;5051367;28;20396;-42
2022/03/21 21:40:28;;;;;;;33.65;21.10;;;;;;;9.50;43.80;102147.38;5035694;28;20029;-44
2022/03/21 21:42:54;;;;;;;36.63;21.10;;;;;;;9.38;44.03;102153.94;5035790;28;20485;-44
2022/03/21 21:45:22;;;;;;;34.50;21.05;;;;;;;9.24;44.26;102141.81;5051126;28;20065;-44
2022/03/21 21:47:50;;;;;;;35.92;20.75;;;;;;;9.23;44.77;102144.63;5050838;28;20087;-44
2022/03/21 21:50:19;;;;;;;33.15;19.55;;;;;;;9.30;44.29;102149.28;5034275;28;20111;-46
2022/03/21 21:52:46;;;;;;;34.22;19.48;;;;;;;9.29;44.49;102152.13;5034971;28;20040;-47
2022/03/21 21:55:12;;;;;;;30.15;18.27;;;;;;;9.27;44.52;102133.47;5034087;28;20033;-42
2022/03/21 21:57:38;;;;;;;28.48;17.98;;;;;;;9.30;44.22;102154.66;5035473;28;20052;-43
2022/03/21 22:00:06;;;;;;;34.97;18.85;;;;;;;9.25;44.63;102146.19;5051021;28;20029;-44
2022/03/21 22:02:32;;;;;;;29.92;17.65;;;;;;;9.27;44.50;102151.41;5035056;28;20120;-43
2022/03/21 22:04:58;;;;;;;34.30;18.88;;;;;;;9.29;44.58;102146.75;5036067;28;20545;-44
2022/03/21 22:07:25;;;;;;;31.27;17.90;;;;;;;9.27;44.54;102154.09;5035452;28;20116;-43
2022/03/21 22:10:01;;;;;;;36.63;18.60;;;;;;;9.29;44.91;102152.13;5036209;28;20021;-41
2022/03/21 22:12:30;;;;;;;32.70;18.45;;;;;;;9.39;44.48;102152.91;5068834;28;20126;-44
2022/03/21 22:14:57;;;;;;;28.75;18.23;;;;;;;9.37;44.45;102152.22;5075175;28;20036;-42
2022/03/21 22:17:24;;;;;;;28.05;17.77;;;;;;;9.29;44.76;102158.31;5075096;28;20090;-46
2022/03/21 22:19:51;;;;;;;34.15;19.65;;;;;;;9.13;45.11;102155.38;5075798;28;20104;-45
2022/03/21 22:22:22;;;;;;;35.40;19.38;;;;;;;9.11;45.47;102151.97;5091010;28;20047;-42
2022/03/21 22:24:49;;;;;;;32.90;18.33;;;;;;;9.09;45.26;102148.59;5075457;28;20492;-42
2022/03/21 22:27:16;;;;;;;30.35;18.17;;;;;;;9.11;45.09;102162.69;5075302;28;20040;-43
2022/03/21 22:29:45;;;;;;;30.30;16.75;;;;;;;9.11;45.44;102160.03;5073976;28;20035;-42
2022/03/21 22:32:11;;;;;;;31.77;17.35;;;;;;;9.10;45.70;102155.63;5075354;28;20048;-42
2022/03/21 22:34:41;;;;;;;27.70;14.68;;;;;;;9.10;45.25;102159.19;5090754;28;20035;-42
2022/03/21 22:37:11;;;;;;;32.90;18.40;;;;;;;9.05;46.07;102158.75;5090948;28;20032;-42
2022/03/21 22:47:57;;;;;;;32.05;18.27;;;;;;;9.05;45.90;102142.69;5076535;28;20502;-41
2022/03/21 22:50:26;;;;;;;32.35;18.48;;;;;;;9.00;46.61;102152.97;5074894;28;20090;-42
2022/03/21 22:52:53;;;;;;;33.03;17.10;;;;;;;8.92;47.09;102128.72;5074936;28;20043;-41
2022/03/21 22:55:22;;;;;;;34.65;18.42;;;;;;;8.95;47.46;102149.84;5074966;28;20039;-42
2022/03/21 22:57:58;;;;;;;39.65;19.10;;;;;;;8.91;47.71;102148.47;5074958;28;20388;-42
2022/03/21 23:00:52;;;;;;;38.88;20.05;;;;;;;8.95;48.02;102143.66;5073398;28;20090;-41
2022/03/21 23:03:24;;;;;;;32.22;19.40;;;;;;;8.97;47.64;102139.88;5059565;28;20053;-42
2022/03/21 23:05:50;;;;;;;31.75;18.50;;;;;;;9.03;47.63;102147.34;5072941;28;20102;-41
2022/03/21 23:08:16;;;;;;;31.15;18.65;;;;;;;9.10;47.17;102151.16;5072967;28;20041;-42
2022/03/21 23:10:42;;;;;;;30.70;17.85;;;;;;;9.15;47.99;102148.03;5072499;28;20376;-41
2022/03/21 23:13:08;;;;;;;32.47;18.80;;;;;;;9.15;47.62;102152.53;5073782;28;20024;-41
2022/03/21 23:15:34;;;;;;;32.42;19.88;;;;;;;9.05;47.83;102126.59;5073734;28;20109;-42
2022/03/21 23:18:03;;;;;;;37.05;18.80;;;;;;;9.20;47.95;102150.28;5072928;28;20031;-44
2022/03/21 23:20:28;;;;;;;35.67;19.25;;;;;;;9.24;47.26;102149.84;5074043;28;20422;-42
2022/03/21 23:22:55;;;;;;;36.40;18.98;;;;;;;9.15;48.04;102134.63;5072667;28;20032;-42
2022/03/21 23:25:23;;;;;;;35.42;19.52;;;;;;;9.07;48.36;102129.13;5073113;28;20033;-42
2022/03/21 23:27:49;;;;;;;37.63;17.90;;;;;;;9.03;48.36;102143.81;5056300;28;20503;-41
2022/03/21 23:30:15;;;;;;;40.13;20.73;;;;;;;9.01;48.47;102152.00;5073029;28;20064;-42
2022/03/21 23:32:41;;;;;;;41.20;19.58;;;;;;;8.88;49.04;102135.38;5073726;28;20476;-42
2022/03/21 23:35:09;;;;;;;41.60;20.30;;;;;;;8.85;48.97;102146.34;5073770;28;20078;-42
2022/03/21 23:37:35;;;;;;;42.20;20.67;;;;;;;8.82;48.99;102142.13;5074168;28;20402;-41
2022/03/21 23:42:47;;;;;;;45.15;20.55;;;;;;;8.80;48.77;102138.72;5059102;28;20036;-42
2022/03/21 23:45:13;;;;;;;42.42;22.15;;;;;;;8.80;49.36;102153.97;5074215;28;20028;-42
2022/03/21 23:47:39;;;;;;;39.60;21.15;;;;;;;8.61;49.82;102136.88;5074609;28;20509;-42
2022/03/21 23:50:07;;;;;;;41.88;20.88;;;;;;;8.55;49.50;102150.00;5075949;28;20097;-42
2022/03/21 23:52:34;;;;;;;40.17;20.48;;;;;;;8.45;50.28;102142.78;5075646;28;20025;-42
2022/03/21 23:55:00;;;;;;;41.97;21.98;;;;;;;8.38;50.90;102143.47;5076831;28;20024;-43
2022/03/21 23:57:25;;;;;;;44.03;21.08;;;;;;;8.28;51.11;102141.59;5076951;28;20032;-42
2022/03/21 23:59:51;;;;;;;39.53;21.35;;;;;;;8.24;51.69;102142.84;5076666;28;20059;-44
